Deer Meadows, Washington
Current Conditions -  °F | °C
As of 10:04 AM on Friday 21 Nov 2014 (Local Time) from KSKA Reporting Station
Overcast Overcast  
Wind Chill: 32°   Ceiling: 6000
Heat Index: 36°   Visibility: 10mi
Dew Point: 32°   Wind: 5mph
Humidity: 87%   Direction: 90°E
Pressure: 29.85"   Gusts: NA
Location:  47.7035°N, 118.192°W
Report Text: KSKA 211804Z AUTO 09004KT 10SM OVC060 02/00 A2985 RMK AO2 RVRNO $
Loading
Personal Weather Stations






























Interactive Weather Map New forecast layout! Learn more

10-Day Weather Forecast

Advertisements
Track Severe Weather on mobile